sensor_id;sensor_type;location;lat;lon;timestamp;P1;durP1;ratioP1;P2;durP2;ratioP2
59062;SDS011;44851;45.648;9.004;2022-12-11T00:01:21;0.77;;;0.77;;
59062;SDS011;44851;45.648;9.004;2022-12-11T00:03:47;0.77;;;0.77;;
59062;SDS011;44851;45.648;9.004;2022-12-11T00:06:14;1.10;;;0.73;;
59062;SDS011;44851;45.648;9.004;2022-12-11T00:08:44;0.80;;;0.80;;
59062;SDS011;44851;45.648;9.004;2022-12-11T00:11:10;0.80;;;0.80;;
59062;SDS011;44851;45.648;9.004;2022-12-11T00:13:38;0.73;;;0.73;;
59062;SDS011;44851;45.648;9.004;2022-12-11T00:16:03;1.10;;;1.00;;
59062;SDS011;44851;45.648;9.004;2022-12-11T00:18:29;0.67;;;0.67;;
59062;SDS011;44851;45.648;9.004;2022-12-11T00:20:58;0.57;;;0.57;;
59062;SDS011;44851;45.648;9.004;2022-12-11T00:23:25;0.70;;;0.70;;
59062;SDS011;44851;45.648;9.004;2022-12-11T00:25:51;0.80;;;0.80;;
59062;SDS011;44851;45.648;9.004;2022-12-11T00:28:16;0.83;;;0.83;;
59062;SDS011;44851;45.648;9.004;2022-12-11T00:30:45;0.70;;;0.70;;
59062;SDS011;44851;45.648;9.004;2022-12-11T00:33:12;1.03;;;0.80;;
59062;SDS011;44851;45.648;9.004;2022-12-11T00:35:39;0.87;;;0.70;;
59062;SDS011;44851;45.648;9.004;2022-12-11T00:38:06;0.80;;;0.80;;
59062;SDS011;44851;45.648;9.004;2022-12-11T00:40:32;0.93;;;0.80;;
59062;SDS011;44851;45.648;9.004;2022-12-11T00:42:59;0.90;;;0.90;;
59062;SDS011;44851;45.648;9.004;2022-12-11T00:45:25;0.77;;;0.77;;
59062;SDS011;44851;45.648;9.004;2022-12-11T00:47:50;0.80;;;0.80;;
59062;SDS011;44851;45.648;9.004;2022-12-11T00:50:15;0.83;;;0.80;;
59062;SDS011;44851;45.648;9.004;2022-12-11T00:52:41;0.70;;;0.70;;
59062;SDS011;44851;45.648;9.004;2022-12-11T00:55:06;0.70;;;0.70;;
59062;SDS011;44851;45.648;9.004;2022-12-11T00:57:32;0.93;;;0.83;;
59062;SDS011;44851;45.648;9.004;2022-12-11T00:59:57;0.70;;;0.70;;
59062;SDS011;44851;45.648;9.004;2022-12-11T01:02:22;0.60;;;0.60;;
59062;SDS011;44851;45.648;9.004;2022-12-11T01:04:48;0.83;;;0.83;;
59062;SDS011;44851;45.648;9.004;2022-12-11T01:07:13;0.70;;;0.70;;
59062;SDS011;44851;45.648;9.004;2022-12-11T01:09:39;0.80;;;0.80;;
59062;SDS011;44851;45.648;9.004;2022-12-11T01:12:23;1.03;;;0.90;;
59062;SDS011;44851;45.648;9.004;2022-12-11T01:14:48;0.70;;;0.70;;
59062;SDS011;44851;45.648;9.004;2022-12-11T01:17:14;0.80;;;0.80;;
59062;SDS011;44851;45.648;9.004;2022-12-11T01:19:40;0.97;;;0.70;;
59062;SDS011;44851;45.648;9.004;2022-12-11T01:22:05;0.80;;;0.80;;
59062;SDS011;44851;45.648;9.004;2022-12-11T01:24:31;1.60;;;0.80;;
59062;SDS011;44851;45.648;9.004;2022-12-11T01:26:57;0.80;;;0.80;;
59062;SDS011;44851;45.648;9.004;2022-12-11T01:29:22;0.60;;;0.60;;
59062;SDS011;44851;45.648;9.004;2022-12-11T01:31:48;0.70;;;0.70;;
59062;SDS011;44851;45.648;9.004;2022-12-11T01:34:13;0.80;;;0.80;;
59062;SDS011;44851;45.648;9.004;2022-12-11T01:36:38;0.77;;;0.77;;
59062;SDS011;44851;45.648;9.004;2022-12-11T01:39:04;0.93;;;0.93;;
59062;SDS011;44851;45.648;9.004;2022-12-11T01:41:29;0.90;;;0.90;;
59062;SDS011;44851;45.648;9.004;2022-12-11T01:46:52;0.90;;;0.90;;
59062;SDS011;44851;45.648;9.004;2022-12-11T01:49:19;0.63;;;0.63;;
59062;SDS011;44851;45.648;9.004;2022-12-11T01:51:52;0.80;;;0.80;;
59062;SDS011;44851;45.648;9.004;2022-12-11T01:54:21;0.77;;;0.77;;
59062;SDS011;44851;45.648;9.004;2022-12-11T01:56:50;2.43;;;0.70;;
59062;SDS011;44851;45.648;9.004;2022-12-11T01:59:18;0.97;;;0.67;;
59062;SDS011;44851;45.648;9.004;2022-12-11T02:01:55;0.57;;;0.57;;
59062;SDS011;44851;45.648;9.004;2022-12-11T02:04:24;0.63;;;0.63;;
59062;SDS011;44851;45.648;9.004;2022-12-11T02:06:52;0.77;;;0.77;;
59062;SDS011;44851;45.648;9.004;2022-12-11T02:09:18;0.87;;;0.80;;
59062;SDS011;44851;45.648;9.004;2022-12-11T02:11:55;0.90;;;0.90;;
59062;SDS011;44851;45.648;9.004;2022-12-11T02:14:45;0.70;;;0.70;;
59062;SDS011;44851;45.648;9.004;2022-12-11T02:22:26;1.00;;;0.90;;
59062;SDS011;44851;45.648;9.004;2022-12-11T02:27:33;0.70;;;0.70;;
59062;SDS011;44851;45.648;9.004;2022-12-11T02:30:10;1.43;;;1.10;;
59062;SDS011;44851;45.648;9.004;2022-12-11T02:32:58;0.90;;;0.90;;
59062;SDS011;44851;45.648;9.004;2022-12-11T02:38:01;0.97;;;0.80;;
59062;SDS011;44851;45.648;9.004;2022-12-11T02:40:32;0.60;;;0.60;;
59062;SDS011;44851;45.648;9.004;2022-12-11T02:43:02;0.97;;;0.83;;
59062;SDS011;44851;45.648;9.004;2022-12-11T02:45:30;1.33;;;1.00;;
59062;SDS011;44851;45.648;9.004;2022-12-11T02:47:57;1.00;;;0.90;;
59062;SDS011;44851;45.648;9.004;2022-12-11T02:50:27;1.03;;;1.00;;
59062;SDS011;44851;45.648;9.004;2022-12-11T02:52:54;0.70;;;0.70;;
59062;SDS011;44851;45.648;9.004;2022-12-11T02:55:21;0.60;;;0.60;;
59062;SDS011;44851;45.648;9.004;2022-12-11T02:57:51;1.43;;;0.90;;
59062;SDS011;44851;45.648;9.004;2022-12-11T03:00:36;1.00;;;0.90;;
59062;SDS011;44851;45.648;9.004;2022-12-11T03:03:02;1.00;;;0.90;;
59062;SDS011;44851;45.648;9.004;2022-12-11T03:05:28;1.47;;;0.73;;
59062;SDS011;44851;45.648;9.004;2022-12-11T03:07:55;0.77;;;0.77;;
59062;SDS011;44851;45.648;9.004;2022-12-11T03:10:20;0.80;;;0.80;;
59062;SDS011;44851;45.648;9.004;2022-12-11T03:12:47;1.20;;;0.90;;
59062;SDS011;44851;45.648;9.004;2022-12-11T03:15:17;1.00;;;0.90;;
59062;SDS011;44851;45.648;9.004;2022-12-11T03:25:56;1.17;;;0.90;;
59062;SDS011;44851;45.648;9.004;2022-12-11T03:31:30;1.27;;;0.90;;
59062;SDS011;44851;45.648;9.004;2022-12-11T03:34:06;0.77;;;0.73;;
59062;SDS011;44851;45.648;9.004;2022-12-11T03:36:43;0.70;;;0.70;;
59062;SDS011;44851;45.648;9.004;2022-12-11T03:39:12;0.90;;;0.80;;
59062;SDS011;44851;45.648;9.004;2022-12-11T03:41:43;0.70;;;0.70;;
59062;SDS011;44851;45.648;9.004;2022-12-11T03:44:10;1.07;;;0.97;;
59062;SDS011;44851;45.648;9.004;2022-12-11T03:46:37;0.73;;;0.73;;
59062;SDS011;44851;45.648;9.004;2022-12-11T03:49:06;0.80;;;0.80;;
59062;SDS011;44851;45.648;9.004;2022-12-11T03:51:37;1.47;;;0.80;;
59062;SDS011;44851;45.648;9.004;2022-12-11T03:54:04;1.00;;;0.90;;
59062;SDS011;44851;45.648;9.004;2022-12-11T03:56:30;0.70;;;0.70;;
59062;SDS011;44851;45.648;9.004;2022-12-11T03:58:59;1.30;;;0.90;;
59062;SDS011;44851;45.648;9.004;2022-12-11T04:01:25;0.63;;;0.63;;
59062;SDS011;44851;45.648;9.004;2022-12-11T04:03:50;0.70;;;0.70;;
59062;SDS011;44851;45.648;9.004;2022-12-11T04:06:16;1.03;;;0.93;;
59062;SDS011;44851;45.648;9.004;2022-12-11T04:08:41;0.80;;;0.80;;
59062;SDS011;44851;45.648;9.004;2022-12-11T04:11:06;1.67;;;1.00;;
59062;SDS011;44851;45.648;9.004;2022-12-11T04:13:50;0.80;;;0.80;;
59062;SDS011;44851;45.648;9.004;2022-12-11T04:16:36;1.23;;;1.13;;
59062;SDS011;44851;45.648;9.004;2022-12-11T04:19:02;0.83;;;0.80;;
59062;SDS011;44851;45.648;9.004;2022-12-11T04:21:46;0.80;;;0.80;;
59062;SDS011;44851;45.648;9.004;2022-12-11T04:24:30;1.07;;;1.00;;
59062;SDS011;44851;45.648;9.004;2022-12-11T04:26:56;2.73;;;1.00;;
59062;SDS011;44851;45.648;9.004;2022-12-11T04:29:21;0.80;;;0.70;;
59062;SDS011;44851;45.648;9.004;2022-12-11T04:31:47;1.17;;;0.97;;
59062;SDS011;44851;45.648;9.004;2022-12-11T04:34:12;0.90;;;0.90;;
59062;SDS011;44851;45.648;9.004;2022-12-11T04:36:37;1.03;;;0.90;;
59062;SDS011;44851;45.648;9.004;2022-12-11T04:39:03;2.20;;;1.33;;
59062;SDS011;44851;45.648;9.004;2022-12-11T04:41:29;1.10;;;1.00;;
59062;SDS011;44851;45.648;9.004;2022-12-11T04:43:55;0.70;;;0.70;;
59062;SDS011;44851;45.648;9.004;2022-12-11T04:46:21;1.10;;;0.77;;
59062;SDS011;44851;45.648;9.004;2022-12-11T04:48:48;0.90;;;0.90;;
59062;SDS011;44851;45.648;9.004;2022-12-11T04:51:14;1.07;;;1.00;;
59062;SDS011;44851;45.648;9.004;2022-12-11T04:53:41;1.20;;;1.10;;
59062;SDS011;44851;45.648;9.004;2022-12-11T04:56:08;3.23;;;1.00;;
59062;SDS011;44851;45.648;9.004;2022-12-11T04:58:34;1.10;;;0.93;;
59062;SDS011;44851;45.648;9.004;2022-12-11T05:01:11;1.03;;;0.80;;
59062;SDS011;44851;45.648;9.004;2022-12-11T05:03:38;0.90;;;0.90;;
59062;SDS011;44851;45.648;9.004;2022-12-11T05:06:04;0.80;;;0.80;;
59062;SDS011;44851;45.648;9.004;2022-12-11T05:08:32;0.73;;;0.73;;
59062;SDS011;44851;45.648;9.004;2022-12-11T05:11:00;1.47;;;1.10;;
59062;SDS011;44851;45.648;9.004;2022-12-11T05:13:28;1.10;;;1.00;;
59062;SDS011;44851;45.648;9.004;2022-12-11T05:15:54;1.10;;;1.00;;
59062;SDS011;44851;45.648;9.004;2022-12-11T05:18:20;1.10;;;1.00;;
59062;SDS011;44851;45.648;9.004;2022-12-11T05:20:58;1.23;;;1.07;;
59062;SDS011;44851;45.648;9.004;2022-12-11T05:23:26;1.27;;;1.13;;
59062;SDS011;44851;45.648;9.004;2022-12-11T05:25:56;1.00;;;0.90;;
59062;SDS011;44851;45.648;9.004;2022-12-11T05:28:24;1.00;;;0.90;;
59062;SDS011;44851;45.648;9.004;2022-12-11T05:30:55;0.90;;;0.90;;
59062;SDS011;44851;45.648;9.004;2022-12-11T05:33:25;1.00;;;0.93;;
59062;SDS011;44851;45.648;9.004;2022-12-11T05:35:51;1.03;;;1.00;;
59062;SDS011;44851;45.648;9.004;2022-12-11T05:38:17;1.13;;;1.00;;
59062;SDS011;44851;45.648;9.004;2022-12-11T05:40:43;1.10;;;1.00;;
59062;SDS011;44851;45.648;9.004;2022-12-11T05:43:08;1.20;;;1.10;;
59062;SDS011;44851;45.648;9.004;2022-12-11T05:45:34;1.40;;;0.97;;
59062;SDS011;44851;45.648;9.004;2022-12-11T05:47:59;2.10;;;1.00;;
59062;SDS011;44851;45.648;9.004;2022-12-11T05:50:25;0.80;;;0.80;;
59062;SDS011;44851;45.648;9.004;2022-12-11T05:52:50;0.97;;;0.93;;
59062;SDS011;44851;45.648;9.004;2022-12-11T05:55:15;1.10;;;1.00;;
59062;SDS011;44851;45.648;9.004;2022-12-11T05:57:41;1.37;;;1.10;;
59062;SDS011;44851;45.648;9.004;2022-12-11T06:00:07;0.90;;;0.90;;
59062;SDS011;44851;45.648;9.004;2022-12-11T06:02:34;0.90;;;0.90;;
59062;SDS011;44851;45.648;9.004;2022-12-11T06:05:00;1.20;;;1.10;;
59062;SDS011;44851;45.648;9.004;2022-12-11T06:07:25;1.53;;;1.30;;
59062;SDS011;44851;45.648;9.004;2022-12-11T06:09:51;1.00;;;1.00;;
59062;SDS011;44851;45.648;9.004;2022-12-11T06:12:16;1.10;;;1.00;;
59062;SDS011;44851;45.648;9.004;2022-12-11T06:14:41;3.20;;;2.23;;
59062;SDS011;44851;45.648;9.004;2022-12-11T06:17:07;1.93;;;1.73;;
59062;SDS011;44851;45.648;9.004;2022-12-11T06:19:32;1.40;;;1.30;;
59062;SDS011;44851;45.648;9.004;2022-12-11T06:21:58;1.53;;;1.20;;
59062;SDS011;44851;45.648;9.004;2022-12-11T06:24:23;1.00;;;1.00;;
59062;SDS011;44851;45.648;9.004;2022-12-11T06:26:48;1.03;;;0.90;;
59062;SDS011;44851;45.648;9.004;2022-12-11T06:29:14;1.10;;;1.00;;
59062;SDS011;44851;45.648;9.004;2022-12-11T06:31:39;1.20;;;1.10;;
59062;SDS011;44851;45.648;9.004;2022-12-11T06:34:05;1.40;;;1.30;;
59062;SDS011;44851;45.648;9.004;2022-12-11T06:36:30;1.40;;;1.03;;
59062;SDS011;44851;45.648;9.004;2022-12-11T06:38:56;1.40;;;1.30;;
59062;SDS011;44851;45.648;9.004;2022-12-11T06:41:21;3.93;;;1.33;;
59062;SDS011;44851;45.648;9.004;2022-12-11T06:43:47;1.20;;;1.10;;
59062;SDS011;44851;45.648;9.004;2022-12-11T06:46:13;1.43;;;1.27;;
59062;SDS011;44851;45.648;9.004;2022-12-11T06:48:40;1.23;;;1.00;;
59062;SDS011;44851;45.648;9.004;2022-12-11T06:51:07;1.77;;;1.37;;
59062;SDS011;44851;45.648;9.004;2022-12-11T06:53:35;1.20;;;1.10;;
59062;SDS011;44851;45.648;9.004;2022-12-11T06:56:01;1.93;;;1.60;;
59062;SDS011;44851;45.648;9.004;2022-12-11T06:58:28;2.00;;;1.70;;
59062;SDS011;44851;45.648;9.004;2022-12-11T07:00:53;1.87;;;1.50;;
59062;SDS011;44851;45.648;9.004;2022-12-11T07:03:19;1.30;;;1.20;;
59062;SDS011;44851;45.648;9.004;2022-12-11T07:05:44;1.03;;;0.93;;
59062;SDS011;44851;45.648;9.004;2022-12-11T07:08:10;1.07;;;0.97;;
59062;SDS011;44851;45.648;9.004;2022-12-11T07:10:35;0.97;;;0.97;;
59062;SDS011;44851;45.648;9.004;2022-12-11T07:13:01;1.30;;;1.20;;
59062;SDS011;44851;45.648;9.004;2022-12-11T07:15:26;1.40;;;1.20;;
59062;SDS011;44851;45.648;9.004;2022-12-11T07:17:51;1.40;;;1.30;;
59062;SDS011;44851;45.648;9.004;2022-12-11T07:20:17;1.27;;;1.17;;
59062;SDS011;44851;45.648;9.004;2022-12-11T07:22:42;2.77;;;2.10;;
59062;SDS011;44851;45.648;9.004;2022-12-11T07:25:08;3.93;;;2.60;;
59062;SDS011;44851;45.648;9.004;2022-12-11T07:27:34;3.77;;;1.70;;
59062;SDS011;44851;45.648;9.004;2022-12-11T07:29:59;3.13;;;2.00;;
59062;SDS011;44851;45.648;9.004;2022-12-11T07:32:24;1.90;;;1.60;;
59062;SDS011;44851;45.648;9.004;2022-12-11T07:34:50;1.43;;;1.20;;
59062;SDS011;44851;45.648;9.004;2022-12-11T07:37:15;1.67;;;1.30;;
59062;SDS011;44851;45.648;9.004;2022-12-11T07:39:41;1.57;;;1.30;;
59062;SDS011;44851;45.648;9.004;2022-12-11T07:42:07;1.50;;;1.07;;
59062;SDS011;44851;45.648;9.004;2022-12-11T07:44:32;1.20;;;1.10;;
59062;SDS011;44851;45.648;9.004;2022-12-11T07:46:57;1.60;;;1.30;;
59062;SDS011;44851;45.648;9.004;2022-12-11T07:49:23;1.47;;;1.37;;
59062;SDS011;44851;45.648;9.004;2022-12-11T07:51:48;1.90;;;1.30;;
59062;SDS011;44851;45.648;9.004;2022-12-11T07:54:14;2.77;;;1.17;;
59062;SDS011;44851;45.648;9.004;2022-12-11T07:56:43;1.43;;;1.30;;
59062;SDS011;44851;45.648;9.004;2022-12-11T07:59:11;1.33;;;1.23;;
59062;SDS011;44851;45.648;9.004;2022-12-11T08:01:37;1.63;;;1.30;;
59062;SDS011;44851;45.648;9.004;2022-12-11T08:04:06;1.93;;;1.33;;
59062;SDS011;44851;45.648;9.004;2022-12-11T08:06:34;1.60;;;1.47;;
59062;SDS011;44851;45.648;9.004;2022-12-11T08:09:03;1.57;;;1.40;;
59062;SDS011;44851;45.648;9.004;2022-12-11T08:11:29;3.10;;;1.67;;
59062;SDS011;44851;45.648;9.004;2022-12-11T08:13:55;2.50;;;1.80;;
59062;SDS011;44851;45.648;9.004;2022-12-11T08:16:23;2.43;;;1.90;;
59062;SDS011;44851;45.648;9.004;2022-12-11T08:18:48;3.53;;;1.77;;
59062;SDS011;44851;45.648;9.004;2022-12-11T08:21:15;1.70;;;1.60;;
59062;SDS011;44851;45.648;9.004;2022-12-11T08:23:45;1.60;;;1.43;;
59062;SDS011;44851;45.648;9.004;2022-12-11T08:26:13;2.03;;;1.53;;
59062;SDS011;44851;45.648;9.004;2022-12-11T08:28:40;2.13;;;1.70;;
59062;SDS011;44851;45.648;9.004;2022-12-11T08:31:06;2.50;;;1.40;;
59062;SDS011;44851;45.648;9.004;2022-12-11T08:33:34;1.80;;;1.47;;
59062;SDS011;44851;45.648;9.004;2022-12-11T08:36:07;1.67;;;1.40;;
59062;SDS011;44851;45.648;9.004;2022-12-11T08:38:35;1.90;;;1.70;;
59062;SDS011;44851;45.648;9.004;2022-12-11T08:41:34;4.03;;;1.80;;
59062;SDS011;44851;45.648;9.004;2022-12-11T08:43:55;3.03;;;1.50;;
59062;SDS011;44851;45.648;9.004;2022-12-11T08:46:23;2.67;;;1.70;;
59062;SDS011;44851;45.648;9.004;2022-12-11T08:48:50;1.77;;;1.40;;
59062;SDS011;44851;45.648;9.004;2022-12-11T08:51:17;1.93;;;1.43;;
59062;SDS011;44851;45.648;9.004;2022-12-11T08:53:45;1.70;;;1.47;;
59062;SDS011;44851;45.648;9.004;2022-12-11T08:56:17;1.50;;;1.40;;
59062;SDS011;44851;45.648;9.004;2022-12-11T08:58:44;1.70;;;1.40;;
59062;SDS011;44851;45.648;9.004;2022-12-11T09:03:40;1.30;;;1.20;;
59062;SDS011;44851;45.648;9.004;2022-12-11T09:06:06;1.20;;;1.10;;
59062;SDS011;44851;45.648;9.004;2022-12-11T09:08:33;1.43;;;1.30;;
59062;SDS011;44851;45.648;9.004;2022-12-11T09:11:06;6.20;;;3.53;;
59062;SDS011;44851;45.648;9.004;2022-12-11T09:13:33;3.60;;;2.50;;
59062;SDS011;44851;45.648;9.004;2022-12-11T09:15:59;6.93;;;3.23;;
59062;SDS011;44851;45.648;9.004;2022-12-11T09:18:24;3.00;;;2.43;;
59062;SDS011;44851;45.648;9.004;2022-12-11T09:20:56;2.73;;;1.60;;
59062;SDS011;44851;45.648;9.004;2022-12-11T09:23:23;2.87;;;1.70;;
59062;SDS011;44851;45.648;9.004;2022-12-11T09:25:49;5.00;;;1.80;;
59062;SDS011;44851;45.648;9.004;2022-12-11T09:28:14;2.30;;;1.77;;
59062;SDS011;44851;45.648;9.004;2022-12-11T09:30:40;1.97;;;1.57;;
59062;SDS011;44851;45.648;9.004;2022-12-11T09:33:06;1.83;;;1.70;;
59062;SDS011;44851;45.648;9.004;2022-12-11T09:35:31;1.33;;;1.10;;
59062;SDS011;44851;45.648;9.004;2022-12-11T09:37:56;1.20;;;1.10;;
59062;SDS011;44851;45.648;9.004;2022-12-11T09:40:22;1.37;;;1.27;;
59062;SDS011;44851;45.648;9.004;2022-12-11T09:42:55;1.77;;;1.67;;
59062;SDS011;44851;45.648;9.004;2022-12-11T09:45:24;1.87;;;1.47;;
59062;SDS011;44851;45.648;9.004;2022-12-11T09:47:51;1.80;;;1.63;;
59062;SDS011;44851;45.648;9.004;2022-12-11T09:50:23;3.13;;;1.67;;
59062;SDS011;44851;45.648;9.004;2022-12-11T09:55:42;3.40;;;2.23;;
59062;SDS011;44851;45.648;9.004;2022-12-11T09:58:26;2.90;;;2.20;;
59062;SDS011;44851;45.648;9.004;2022-12-11T10:06:42;2.43;;;2.07;;
59062;SDS011;44851;45.648;9.004;2022-12-11T10:09:24;2.97;;;2.27;;
59062;SDS011;44851;45.648;9.004;2022-12-11T10:17:30;1.40;;;1.30;;
59062;SDS011;44851;45.648;9.004;2022-12-11T10:20:01;2.17;;;1.57;;
59062;SDS011;44851;45.648;9.004;2022-12-11T10:22:49;3.10;;;1.90;;
59062;SDS011;44851;45.648;9.004;2022-12-11T10:26:02;1.70;;;1.30;;
59062;SDS011;44851;45.648;9.004;2022-12-11T10:28:14;1.50;;;1.30;;
59062;SDS011;44851;45.648;9.004;2022-12-11T10:30:44;1.77;;;1.40;;
59062;SDS011;44851;45.648;9.004;2022-12-11T10:33:33;2.27;;;1.20;;
59062;SDS011;44851;45.648;9.004;2022-12-11T10:36:01;3.03;;;1.40;;
59062;SDS011;44851;45.648;9.004;2022-12-11T10:38:30;1.40;;;1.30;;
59062;SDS011;44851;45.648;9.004;2022-12-11T10:41:01;1.43;;;1.30;;
59062;SDS011;44851;45.648;9.004;2022-12-11T10:43:40;2.00;;;1.60;;
59062;SDS011;44851;45.648;9.004;2022-12-11T10:46:17;1.53;;;1.30;;
59062;SDS011;44851;45.648;9.004;2022-12-11T10:48:51;3.23;;;2.03;;
59062;SDS011;44851;45.648;9.004;2022-12-11T10:54:00;2.47;;;1.67;;
59062;SDS011;44851;45.648;9.004;2022-12-11T10:56:43;1.90;;;1.50;;
59062;SDS011;44851;45.648;9.004;2022-12-11T10:59:32;1.90;;;1.30;;
59062;SDS011;44851;45.648;9.004;2022-12-11T11:02:02;2.07;;;1.50;;
59062;SDS011;44851;45.648;9.004;2022-12-11T11:04:30;2.00;;;1.43;;
59062;SDS011;44851;45.648;9.004;2022-12-11T11:07:07;1.57;;;1.40;;
59062;SDS011;44851;45.648;9.004;2022-12-11T11:09:41;4.90;;;2.10;;
59062;SDS011;44851;45.648;9.004;2022-12-11T11:12:25;2.37;;;1.77;;
59062;SDS011;44851;45.648;9.004;2022-12-11T11:15:03;2.20;;;1.57;;
59062;SDS011;44851;45.648;9.004;2022-12-11T11:17:39;2.13;;;1.70;;
59062;SDS011;44851;45.648;9.004;2022-12-11T11:20:11;1.67;;;1.30;;
59062;SDS011;44851;45.648;9.004;2022-12-11T11:22:41;1.40;;;1.30;;
59062;SDS011;44851;45.648;9.004;2022-12-11T11:25:14;2.70;;;1.50;;
59062;SDS011;44851;45.648;9.004;2022-12-11T11:27:44;2.47;;;1.50;;
59062;SDS011;44851;45.648;9.004;2022-12-11T11:30:20;4.97;;;2.03;;
59062;SDS011;44851;45.648;9.004;2022-12-11T11:32:55;4.67;;;2.03;;
59062;SDS011;44851;45.648;9.004;2022-12-11T11:35:25;2.43;;;1.80;;
59062;SDS011;44851;45.648;9.004;2022-12-11T11:40:50;2.50;;;1.43;;
59062;SDS011;44851;45.648;9.004;2022-12-11T11:51:13;2.10;;;1.67;;
59062;SDS011;44851;45.648;9.004;2022-12-11T11:53:39;1.83;;;1.40;;
59062;SDS011;44851;45.648;9.004;2022-12-11T11:59:22;4.50;;;1.73;;
59062;SDS011;44851;45.648;9.004;2022-12-11T12:01:53;2.60;;;1.70;;
59062;SDS011;44851;45.648;9.004;2022-12-11T12:04:20;1.50;;;1.40;;
59062;SDS011;44851;45.648;9.004;2022-12-11T12:15:03;8.67;;;6.33;;
59062;SDS011;44851;45.648;9.004;2022-12-11T12:17:53;7.80;;;6.50;;
59062;SDS011;44851;45.648;9.004;2022-12-11T12:20:31;8.67;;;6.33;;
59062;SDS011;44851;45.648;9.004;2022-12-11T12:32:04;10.27;;;7.00;;
59062;SDS011;44851;45.648;9.004;2022-12-11T12:42:48;9.67;;;6.77;;
59062;SDS011;44851;45.648;9.004;2022-12-11T12:48:07;8.97;;;6.60;;
59062;SDS011;44851;45.648;9.004;2022-12-11T12:50:37;8.57;;;6.37;;
59062;SDS011;44851;45.648;9.004;2022-12-11T12:53:07;9.33;;;7.33;;
59062;SDS011;44851;45.648;9.004;2022-12-11T12:55:40;8.83;;;6.63;;
59062;SDS011;44851;45.648;9.004;2022-12-11T13:01:09;8.20;;;6.63;;
59062;SDS011;44851;45.648;9.004;2022-12-11T13:06:37;9.27;;;6.47;;
59062;SDS011;44851;45.648;9.004;2022-12-11T13:11:41;9.57;;;7.90;;
59062;SDS011;44851;45.648;9.004;2022-12-11T13:16:46;10.13;;;7.63;;
59062;SDS011;44851;45.648;9.004;2022-12-11T13:21:55;10.33;;;7.53;;
59062;SDS011;44851;45.648;9.004;2022-12-11T13:24:25;9.07;;;7.23;;
59062;SDS011;44851;45.648;9.004;2022-12-11T13:26:52;9.73;;;7.20;;
59062;SDS011;44851;45.648;9.004;2022-12-11T13:29:32;12.23;;;8.10;;
59062;SDS011;44851;45.648;9.004;2022-12-11T13:34:32;9.87;;;7.90;;
59062;SDS011;44851;45.648;9.004;2022-12-11T13:37:01;10.13;;;6.90;;
59062;SDS011;44851;45.648;9.004;2022-12-11T13:39:29;9.10;;;6.13;;
59062;SDS011;44851;45.648;9.004;2022-12-11T13:42:19;17.43;;;11.87;;
59062;SDS011;44851;45.648;9.004;2022-12-11T13:44:50;9.57;;;7.40;;
59062;SDS011;44851;45.648;9.004;2022-12-11T13:47:16;10.10;;;8.10;;
59062;SDS011;44851;45.648;9.004;2022-12-11T13:49:45;9.17;;;7.07;;
59062;SDS011;44851;45.648;9.004;2022-12-11T13:52:18;10.87;;;7.13;;
59062;SDS011;44851;45.648;9.004;2022-12-11T13:54:49;9.67;;;6.93;;
59062;SDS011;44851;45.648;9.004;2022-12-11T13:57:17;9.57;;;6.97;;
59062;SDS011;44851;45.648;9.004;2022-12-11T13:59:50;8.93;;;6.27;;
59062;SDS011;44851;45.648;9.004;2022-12-11T14:02:33;10.67;;;6.57;;
59062;SDS011;44851;45.648;9.004;2022-12-11T14:05:06;10.57;;;9.03;;
59062;SDS011;44851;45.648;9.004;2022-12-11T14:07:37;10.07;;;7.17;;
59062;SDS011;44851;45.648;9.004;2022-12-11T14:13:01;11.70;;;6.87;;
59062;SDS011;44851;45.648;9.004;2022-12-11T14:15:32;9.47;;;6.30;;
59062;SDS011;44851;45.648;9.004;2022-12-11T14:18:00;9.53;;;7.00;;
59062;SDS011;44851;45.648;9.004;2022-12-11T14:20:26;8.80;;;6.93;;
59062;SDS011;44851;45.648;9.004;2022-12-11T14:23:06;10.80;;;7.00;;
59062;SDS011;44851;45.648;9.004;2022-12-11T14:25:40;8.27;;;6.00;;
59062;SDS011;44851;45.648;9.004;2022-12-11T14:28:12;11.33;;;7.77;;
59062;SDS011;44851;45.648;9.004;2022-12-11T14:30:44;9.50;;;7.80;;
59062;SDS011;44851;45.648;9.004;2022-12-11T14:33:13;10.07;;;7.13;;
59062;SDS011;44851;45.648;9.004;2022-12-11T14:35:40;9.60;;;6.70;;
59062;SDS011;44851;45.648;9.004;2022-12-11T14:38:18;9.13;;;6.60;;
59062;SDS011;44851;45.648;9.004;2022-12-11T14:40:52;8.57;;;6.93;;
59062;SDS011;44851;45.648;9.004;2022-12-11T14:43:27;8.57;;;6.10;;
59062;SDS011;44851;45.648;9.004;2022-12-11T14:45:58;12.20;;;7.60;;
59062;SDS011;44851;45.648;9.004;2022-12-11T14:48:29;11.57;;;7.97;;
59062;SDS011;44851;45.648;9.004;2022-12-11T14:51:04;11.53;;;7.97;;
59062;SDS011;44851;45.648;9.004;2022-12-11T14:53:36;8.53;;;6.60;;
59062;SDS011;44851;45.648;9.004;2022-12-11T14:56:06;8.63;;;7.33;;
59062;SDS011;44851;45.648;9.004;2022-12-11T14:58:41;12.93;;;7.33;;
59062;SDS011;44851;45.648;9.004;2022-12-11T15:01:23;9.13;;;7.33;;
59062;SDS011;44851;45.648;9.004;2022-12-11T15:06:31;13.20;;;6.70;;
59062;SDS011;44851;45.648;9.004;2022-12-11T15:11:52;10.87;;;6.83;;
59062;SDS011;44851;45.648;9.004;2022-12-11T15:14:19;9.60;;;6.67;;
59062;SDS011;44851;45.648;9.004;2022-12-11T15:16:47;8.63;;;6.50;;
59062;SDS011;44851;45.648;9.004;2022-12-11T15:19:18;8.43;;;6.77;;
59062;SDS011;44851;45.648;9.004;2022-12-11T15:21:44;14.80;;;7.23;;
59062;SDS011;44851;45.648;9.004;2022-12-11T15:24:20;8.30;;;6.37;;
59062;SDS011;44851;45.648;9.004;2022-12-11T15:26:48;10.00;;;7.37;;
59062;SDS011;44851;45.648;9.004;2022-12-11T15:29:31;9.30;;;7.40;;
59062;SDS011;44851;45.648;9.004;2022-12-11T15:31:59;9.23;;;6.60;;
59062;SDS011;44851;45.648;9.004;2022-12-11T15:34:48;9.70;;;7.30;;
59062;SDS011;44851;45.648;9.004;2022-12-11T15:39:58;10.93;;;7.30;;
59062;SDS011;44851;45.648;9.004;2022-12-11T15:42:37;9.00;;;7.43;;
59062;SDS011;44851;45.648;9.004;2022-12-11T15:45:06;8.43;;;6.47;;
59062;SDS011;44851;45.648;9.004;2022-12-11T15:47:38;11.37;;;6.80;;
59062;SDS011;44851;45.648;9.004;2022-12-11T15:50:12;11.10;;;7.63;;
59062;SDS011;44851;45.648;9.004;2022-12-11T15:52:44;15.53;;;10.13;;
59062;SDS011;44851;45.648;9.004;2022-12-11T15:55:10;12.87;;;8.73;;
59062;SDS011;44851;45.648;9.004;2022-12-11T15:57:36;12.60;;;8.83;;
59062;SDS011;44851;45.648;9.004;2022-12-11T16:00:04;11.13;;;7.63;;
59062;SDS011;44851;45.648;9.004;2022-12-11T16:02:32;11.43;;;9.60;;
59062;SDS011;44851;45.648;9.004;2022-12-11T16:04:58;13.00;;;9.63;;
59062;SDS011;44851;45.648;9.004;2022-12-11T16:07:24;14.33;;;9.73;;
59062;SDS011;44851;45.648;9.004;2022-12-11T16:09:50;12.87;;;9.80;;
59062;SDS011;44851;45.648;9.004;2022-12-11T16:12:17;12.73;;;9.07;;
59062;SDS011;44851;45.648;9.004;2022-12-11T16:14:43;15.43;;;10.50;;
59062;SDS011;44851;45.648;9.004;2022-12-11T16:17:10;12.03;;;10.10;;
59062;SDS011;44851;45.648;9.004;2022-12-11T16:19:37;13.70;;;9.87;;
59062;SDS011;44851;45.648;9.004;2022-12-11T16:22:04;16.07;;;10.43;;
59062;SDS011;44851;45.648;9.004;2022-12-11T16:24:30;12.03;;;10.13;;
59062;SDS011;44851;45.648;9.004;2022-12-11T16:26:56;12.47;;;10.07;;
59062;SDS011;44851;45.648;9.004;2022-12-11T16:29:22;13.53;;;9.53;;
59062;SDS011;44851;45.648;9.004;2022-12-11T16:31:48;12.23;;;9.37;;
59062;SDS011;44851;45.648;9.004;2022-12-11T16:34:13;14.17;;;9.80;;
59062;SDS011;44851;45.648;9.004;2022-12-11T16:36:39;15.40;;;10.63;;
59062;SDS011;44851;45.648;9.004;2022-12-11T16:39:04;12.80;;;10.00;;
59062;SDS011;44851;45.648;9.004;2022-12-11T16:41:29;13.53;;;9.87;;
59062;SDS011;44851;45.648;9.004;2022-12-11T16:43:55;16.03;;;10.43;;
59062;SDS011;44851;45.648;9.004;2022-12-11T16:46:21;14.47;;;11.30;;
59062;SDS011;44851;45.648;9.004;2022-12-11T16:48:48;14.60;;;10.67;;
59062;SDS011;44851;45.648;9.004;2022-12-11T16:51:13;16.10;;;10.90;;